Aérodrome :
LOGIN :

S'inscrire | Disclaimer

   EN    FR    IT 

 










Légende :    VFR   VFR Marginal   IFR   IFR Intensif   IFR Très Intensif
Visi : 
Plafond : 
>= 8 km
>= 3000ft
5 à 8 km
1000 à 3000 ft
1500m à 5 km
500 à 1000 ft
800 à 1500m
200 à 500 ft
< 800m
< 200 ft
Symboles :   Orages  Brouillard  Fortes neiges  Fortes précipitations  Vent > 20 kt
SIGMETs :   Divers  Orages  Givrage  Turbulence  Onde Orograph.  Cendres Volcan.







- Altitude de l'aérodrome : 348 ft
- Code IATA : LDV
- Voir les cartes d'approche


LFRJ - Landivisiau

DERNIER METAR :
  • 221130Z AUTO 24007KT 200V330 9999 FEW048 20/08 Q1020 NOSIG

METARs EXPIRÉS :
  • 221100Z AUTO 23007KT 170V280 9999 FEW046 20/09 Q1020 NOSIG
  • 221030Z AUTO 21006KT 150V260 9999 FEW042 20/10 Q1020 NOSIG
  • 221000Z AUTO 23007KT 200V260 CAVOK 19/09 Q1020 NOSIG
  • 220930Z AUTO 22006KT 160V270 CAVOK 19/10 Q1020 NOSIG
  • 220900Z AUTO 19004KT 110V270 CAVOK 18/10 Q1020

TAF TAF LFRJ
Valide du 22 à 12h jusqu'au 22 à 21h UTC


221100Z 2212/2221 25005KT CAVOK
Pas de NOTAMs connus pour ce terrain.



MET'MAP, la Météo Aéronautique d'un coup d'oeil ! - Copyright ORBIFLY Décembre 2007 - Disclaimer

ORBIFLY MET'MAP TEAM :

Programmation & Développement : Alexandra Zaïnal
Conception & Développement : Baudouin d'Aumeries
Co-Programmation & Développement : Marc-Olivier Méhu
Soutien technique & logistique : Manuel Goepfert

Contact : metmap@orbifly.com




SOURCES & CREDITS :

   NOAA